Time;durP1;ratioP1;P1;durP2;ratioP2;P2;SDS_P1;SDS_P2;PMS_P1;PMS_P2;Temp;Humidity;BMP_temperature;BMP_pressure;BME280_temperature;BME280_humidity;BME280_pressure;Samples;Min_cycle;Max_cycle;Signal;HPM_P1;HPM_P2
2023/09/03 00:01:43;;;;;;;1.23;1.13;;;24.10;55.30;;;;;;5026623;28;20044;-66
2023/09/03 00:04:09;;;;;;;1.48;1.10;;;24.10;54.70;;;;;;5029656;28;20040;-66
2023/09/03 00:06:35;;;;;;;1.40;1.13;;;24.10;54.60;;;;;;4986841;28;20033;-70
2023/09/03 00:09:01;;;;;;;1.02;0.90;;;24.10;54.60;;;;;;5013514;28;20026;-67
2023/09/03 00:11:27;;;;;;;1.70;1.10;;;24.10;54.60;;;;;;5027319;28;20116;-66
2023/09/03 00:13:54;;;;;;;0.80;0.80;;;24.10;54.60;;;;;;5027455;28;20421;-67
2023/09/03 00:16:19;;;;;;;1.75;1.13;;;24.10;54.50;;;;;;5026382;28;20142;-66
2023/09/03 00:18:47;;;;;;;1.38;1.00;;;24.10;54.50;;;;;;5031151;28;20100;-68
2023/09/03 00:21:13;;;;;;;1.10;1.00;;;24.10;54.50;;;;;;5033316;28;20026;-70
2023/09/03 00:23:39;;;;;;;2.28;1.10;;;24.00;54.50;;;;;;5025537;28;20194;-63
2023/09/03 00:26:05;;;;;;;1.83;1.20;;;24.10;54.50;;;;;;5021549;28;20132;-65
2023/09/03 00:28:31;;;;;;;0.88;0.80;;;24.00;54.40;;;;;;5010657;28;20037;-64
2023/09/03 00:31:01;;;;;;;2.67;1.10;;;24.00;54.40;;;;;;5019878;28;20037;-65
2023/09/03 00:33:28;;;;;;;1.55;1.10;;;24.00;54.40;;;;;;5018400;28;20063;-66
2023/09/03 00:35:54;;;;;;;1.10;1.00;;;24.00;54.40;;;;;;5022493;28;20408;-67
2023/09/03 00:38:20;;;;;;;1.30;1.00;;;24.00;54.40;;;;;;5028513;28;20040;-63
2023/09/03 00:40:46;;;;;;;1.02;0.80;;;24.00;54.40;;;;;;5027877;28;20037;-67
2023/09/03 00:43:12;;;;;;;1.00;0.90;;;24.00;54.40;;;;;;5039845;28;20867;-65
2023/09/03 00:45:41;;;;;;;1.27;1.17;;;24.00;54.50;;;;;;5031105;28;20120;-66
2023/09/03 00:48:09;;;;;;;0.82;0.82;;;24.00;54.60;;;;;;5013488;28;20050;-67
2023/09/03 00:50:37;;;;;;;1.35;1.20;;;24.00;54.50;;;;;;5026738;28;20121;-68
2023/09/03 00:53:05;;;;;;;0.77;0.77;;;24.00;54.50;;;;;;5012623;28;20128;-63
2023/09/03 00:55:32;;;;;;;1.10;1.00;;;24.00;54.50;;;;;;5022884;28;20148;-64
2023/09/03 00:57:59;;;;;;;1.02;0.93;;;24.00;54.40;;;;;;5018355;28;20482;-65
2023/09/03 01:00:25;;;;;;;2.03;0.95;;;24.00;54.40;;;;;;5013805;28;20068;-65
2023/09/03 01:02:53;;;;;;;0.93;0.80;;;24.00;54.40;;;;;;5030674;28;20029;-65
2023/09/03 01:05:20;;;;;;;0.80;0.80;;;24.00;54.40;;;;;;5015519;28;20132;-66
2023/09/03 01:07:48;;;;;;;1.55;1.00;;;23.90;54.40;;;;;;4992717;28;20030;-65
2023/09/03 01:10:15;;;;;;;1.25;1.05;;;23.90;54.40;;;;;;5025858;28;20041;-67
2023/09/03 01:12:41;;;;;;;1.38;1.10;;;24.00;54.50;;;;;;5014803;28;20370;-64
2023/09/03 01:15:14;;;;;;;1.17;0.85;;;23.90;54.50;;;;;;5029935;28;20108;-66
2023/09/03 01:17:50;;;;;;;1.63;1.20;;;23.90;54.50;;;;;;5038520;28;20095;-67
2023/09/03 01:20:21;;;;;;;1.10;1.00;;;23.90;54.50;;;;;;5005699;28;20034;-68
2023/09/03 01:23:15;;;;;;;1.48;1.13;;;23.90;54.50;;;;;;5028611;28;20465;-66
2023/09/03 01:26:15;;;;;;;1.38;1.00;;;23.90;54.50;;;;;;5024255;28;20092;-67
2023/09/03 01:28:42;;;;;;;1.42;0.90;;;23.90;54.60;;;;;;4982320;28;20453;-65
2023/09/03 01:31:14;;;;;;;1.10;1.00;;;23.90;54.60;;;;;;5004634;28;20038;-66
2023/09/03 01:33:45;;;;;;;1.70;1.20;;;23.80;54.50;;;;;;5025129;28;20475;-65
2023/09/03 01:36:12;;;;;;;1.70;0.93;;;23.80;54.50;;;;;;5006334;28;20282;-64
2023/09/03 01:38:39;;;;;;;2.78;1.20;;;23.80;54.50;;;;;;5003345;28;20043;-67
2023/09/03 01:41:06;;;;;;;1.95;1.00;;;23.80;54.50;;;;;;5025064;28;20026;-67
2023/09/03 01:43:33;;;;;;;2.03;0.90;;;23.80;54.50;;;;;;5003698;28;20056;-65
2023/09/03 01:46:17;;;;;;;1.60;0.85;;;23.80;54.50;;;;;;5025459;28;20075;-64
2023/09/03 01:49:01;;;;;;;0.95;0.90;;;23.80;54.50;;;;;;5012953;28;20657;-65
2023/09/03 01:51:49;;;;;;;0.98;0.93;;;23.80;54.50;;;;;;5031715;28;20060;-65
2023/09/03 01:54:39;;;;;;;1.40;0.90;;;23.80;54.50;;;;;;5022115;28;20045;-65
2023/09/03 01:57:35;;;;;;;1.65;1.00;;;23.80;54.60;;;;;;5003100;28;20022;-66
2023/09/03 02:00:06;;;;;;;1.55;0.98;;;23.80;54.50;;;;;;4991250;28;20038;-67
2023/09/03 02:02:43;;;;;;;1.50;1.10;;;23.80;54.60;;;;;;5025414;28;20064;-62
2023/09/03 02:05:09;;;;;;;0.95;0.77;;;23.80;54.60;;;;;;5004437;28;20028;-67
2023/09/03 02:07:35;;;;;;;1.02;0.93;;;23.80;54.70;;;;;;5006593;28;20029;-64
2023/09/03 02:10:01;;;;;;;1.30;1.20;;;23.80;54.60;;;;;;5026763;28;20047;-66
2023/09/03 02:12:27;;;;;;;1.25;0.85;;;23.80;54.60;;;;;;5008015;28;20025;-65
2023/09/03 02:14:55;;;;;;;0.88;0.70;;;23.80;54.60;;;;;;5026943;28;20053;-65
2023/09/03 02:17:21;;;;;;;0.98;0.70;;;23.70;54.60;;;;;;5009244;28;20108;-64
2023/09/03 02:19:52;;;;;;;1.13;0.90;;;23.80;54.70;;;;;;5009171;28;20091;-67
2023/09/03 02:22:19;;;;;;;1.08;0.98;;;23.70;54.60;;;;;;5010343;28;20033;-66
2023/09/03 02:24:45;;;;;;;1.50;0.90;;;23.70;54.60;;;;;;5013435;28;20427;-66
2023/09/03 02:27:12;;;;;;;1.30;1.02;;;23.70;54.60;;;;;;5009078;28;20025;-66
2023/09/03 02:29:39;;;;;;;1.50;1.05;;;23.70;54.70;;;;;;5029927;28;20045;-67
2023/09/03 02:32:06;;;;;;;1.55;1.17;;;23.70;54.70;;;;;;5011268;28;20101;-65
2023/09/03 02:34:32;;;;;;;1.15;0.90;;;23.70;54.70;;;;;;5025961;28;20125;-66
2023/09/03 02:36:58;;;;;;;1.83;1.20;;;23.70;54.70;;;;;;5013724;28;20341;-65
2023/09/03 02:39:24;;;;;;;1.15;1.05;;;23.70;54.70;;;;;;5005983;28;20037;-68
2023/09/03 02:41:50;;;;;;;1.50;1.20;;;23.70;54.70;;;;;;5029053;28;20337;-64
2023/09/03 02:44:16;;;;;;;2.03;1.33;;;23.70;54.70;;;;;;5012759;28;20078;-63
2023/09/03 02:46:42;;;;;;;1.52;1.23;;;23.70;54.70;;;;;;5036303;28;20373;-65
2023/09/03 02:49:09;;;;;;;1.60;1.10;;;23.70;54.70;;;;;;5031748;28;20044;-67
2023/09/03 02:51:37;;;;;;;1.65;1.00;;;23.70;54.70;;;;;;5015135;28;20033;-64
2023/09/03 02:54:03;;;;;;;1.40;1.20;;;23.70;54.70;;;;;;5016162;28;20048;-65
2023/09/03 02:56:30;;;;;;;1.48;1.10;;;23.70;54.70;;;;;;5015098;28;20037;-64
2023/09/03 02:58:56;;;;;;;1.23;1.05;;;23.70;54.70;;;;;;5034229;28;20087;-67
2023/09/03 03:01:23;;;;;;;1.48;1.02;;;23.70;54.70;;;;;;5014916;28;20352;-64
2023/09/03 03:03:50;;;;;;;1.63;0.95;;;23.70;54.70;;;;;;5016091;28;20029;-66
2023/09/03 03:06:18;;;;;;;1.55;1.15;;;23.70;54.70;;;;;;5034582;28;20183;-65
2023/09/03 03:08:44;;;;;;;1.30;1.10;;;23.70;54.70;;;;;;5034429;28;20495;-66
2023/09/03 03:11:17;;;;;;;1.67;1.10;;;23.70;54.70;;;;;;5014471;28;20096;-67
2023/09/03 03:14:02;;;;;;;2.30;1.40;;;23.70;54.70;;;;;;5009764;28;21563;-66
2023/09/03 03:16:34;;;;;;;1.52;1.00;;;23.70;54.70;;;;;;5006520;28;20490;-64
2023/09/03 03:19:05;;;;;;;0.93;0.82;;;23.60;54.60;;;;;;5005262;28;20526;-64
2023/09/03 03:21:36;;;;;;;1.73;1.48;;;23.60;54.60;;;;;;5009936;28;20459;-64
2023/09/03 03:24:04;;;;;;;1.60;1.20;;;23.60;54.60;;;;;;5011536;28;20345;-68
2023/09/03 03:26:35;;;;;;;1.35;1.10;;;23.60;54.60;;;;;;5005943;28;20017;-63
2023/09/03 03:29:03;;;;;;;1.35;1.05;;;23.60;54.60;;;;;;5025516;28;20067;-68
2023/09/03 03:31:32;;;;;;;2.17;1.20;;;23.60;54.60;;;;;;5008254;28;20029;-65
2023/09/03 03:34:00;;;;;;;1.50;1.20;;;23.60;54.60;;;;;;5025852;28;20099;-65
2023/09/03 03:36:29;;;;;;;1.95;1.10;;;23.60;54.60;;;;;;5011019;28;20398;-67
2023/09/03 03:38:55;;;;;;;1.63;1.13;;;23.60;54.60;;;;;;5019850;28;20036;-66
2023/09/03 03:41:22;;;;;;;1.20;0.98;;;23.60;54.60;;;;;;5027720;28;20391;-64
2023/09/03 03:43:53;;;;;;;1.58;1.20;;;23.60;54.60;;;;;;5009676;28;20032;-67
2023/09/03 03:46:22;;;;;;;1.77;1.05;;;23.60;54.60;;;;;;5028107;28;20464;-67
2023/09/03 03:48:52;;;;;;;1.25;1.02;;;23.60;54.60;;;;;;5012599;28;20426;-66
2023/09/03 03:51:19;;;;;;;1.77;1.23;;;23.60;54.60;;;;;;4989205;28;20314;-65
2023/09/03 03:53:45;;;;;;;1.10;1.00;;;23.60;54.60;;;;;;5001582;28;20081;-63
2023/09/03 03:56:12;;;;;;;1.50;1.17;;;23.60;54.60;;;;;;4991765;28;20026;-66
2023/09/03 03:58:40;;;;;;;1.27;0.98;;;23.60;54.60;;;;;;5005950;28;20127;-66
2023/09/03 04:01:17;;;;;;;1.33;1.00;;;23.50;54.50;;;;;;5026619;28;20025;-65
2023/09/03 04:03:44;;;;;;;1.23;1.10;;;23.60;54.50;;;;;;5028675;28;20033;-64
2023/09/03 04:06:10;;;;;;;1.15;1.05;;;23.60;54.50;;;;;;5028187;28;20429;-64
2023/09/03 04:08:38;;;;;;;0.93;0.90;;;23.60;54.40;;;;;;5027296;28;20048;-67
2023/09/03 04:11:08;;;;;;;1.88;1.15;;;23.50;54.40;;;;;;5030670;28;20429;-64
2023/09/03 04:13:35;;;;;;;1.30;1.05;;;23.50;54.40;;;;;;5027279;28;20033;-65
2023/09/03 04:16:10;;;;;;;1.42;1.00;;;23.50;54.40;;;;;;4987267;28;20030;-67
2023/09/03 04:18:38;;;;;;;1.05;0.95;;;23.50;54.40;;;;;;5008886;28;20048;-66
2023/09/03 04:21:04;;;;;;;1.13;1.02;;;23.50;54.40;;;;;;5006830;28;20018;-68
2023/09/03 04:23:30;;;;;;;1.52;1.10;;;23.50;54.40;;;;;;5029574;28;20026;-65
2023/09/03 04:25:59;;;;;;;1.38;1.00;;;23.50;54.40;;;;;;5009751;28;20025;-63
2023/09/03 04:28:27;;;;;;;1.45;1.13;;;23.50;54.40;;;;;;5009895;28;20033;-66
2023/09/03 04:31:03;;;;;;;1.85;0.90;;;23.50;54.40;;;;;;5003224;28;20545;-64
2023/09/03 04:33:32;;;;;;;1.02;0.90;;;23.50;54.50;;;;;;5000233;28;20017;-62
2023/09/03 04:36:00;;;;;;;1.10;1.00;;;23.50;54.50;;;;;;4992827;28;20395;-65
2023/09/03 04:38:29;;;;;;;3.17;1.10;;;23.50;54.50;;;;;;5025367;28;20380;-65
2023/09/03 04:40:56;;;;;;;1.75;1.20;;;23.50;54.50;;;;;;5004598;28;20043;-65
2023/09/03 04:43:23;;;;;;;0.80;0.80;;;23.50;54.50;;;;;;5004311;28;20033;-66
2023/09/03 04:45:53;;;;;;;1.45;1.20;;;23.50;54.60;;;;;;5030605;28;20160;-63
2023/09/03 04:48:21;;;;;;;1.45;1.10;;;23.50;54.50;;;;;;5012716;28;20045;-65
2023/09/03 04:50:47;;;;;;;1.20;1.10;;;23.50;54.50;;;;;;5014707;28;20409;-65
2023/09/03 04:53:13;;;;;;;1.30;1.00;;;23.40;54.40;;;;;;5031607;28;20030;-62
2023/09/03 04:55:41;;;;;;;2.67;1.20;;;23.40;54.40;;;;;;5010805;28;20057;-63
2023/09/03 04:58:07;;;;;;;1.00;0.90;;;23.50;54.50;;;;;;5012771;28;20053;-68
2023/09/03 05:00:33;;;;;;;1.30;1.15;;;23.40;54.50;;;;;;5016517;28;20030;-64
2023/09/03 05:03:04;;;;;;;1.55;0.90;;;23.40;54.50;;;;;;5006181;28;20325;-63
2023/09/03 05:05:30;;;;;;;1.50;1.13;;;23.50;54.50;;;;;;5010457;28;20083;-64
2023/09/03 05:07:57;;;;;;;1.08;0.98;;;23.40;54.50;;;;;;5005647;28;20051;-66
2023/09/03 05:10:24;;;;;;;1.08;0.85;;;23.40;54.50;;;;;;5012658;28;20075;-66
2023/09/03 05:12:50;;;;;;;1.65;1.15;;;23.40;54.50;;;;;;5010689;28;20022;-64
2023/09/03 05:15:17;;;;;;;1.55;1.25;;;23.40;54.50;;;;;;5012282;28;20416;-64
2023/09/03 05:17:43;;;;;;;1.13;0.88;;;23.40;54.50;;;;;;5008046;28;20120;-67
2023/09/03 05:20:09;;;;;;;1.50;1.05;;;23.40;54.50;;;;;;5030335;28;20029;-65
2023/09/03 05:22:35;;;;;;;1.10;1.00;;;23.40;54.50;;;;;;5031471;28;20356;-62
2023/09/03 05:25:02;;;;;;;1.75;1.23;;;23.40;54.50;;;;;;5020126;28;20082;-65
2023/09/03 05:27:29;;;;;;;1.50;1.20;;;23.40;54.50;;;;;;5030052;28;20033;-66
2023/09/03 05:29:55;;;;;;;1.20;1.00;;;23.40;54.50;;;;;;5000202;28;20447;-64
2023/09/03 05:32:21;;;;;;;1.30;1.10;;;23.40;54.50;;;;;;5032482;28;20203;-63
2023/09/03 05:34:47;;;;;;;1.17;0.98;;;23.40;54.50;;;;;;5026168;28;20025;-64
2023/09/03 05:37:13;;;;;;;1.20;1.08;;;23.40;54.50;;;;;;5022464;28;20025;-64
2023/09/03 05:39:39;;;;;;;1.58;1.20;;;23.40;54.50;;;;;;5013177;28;20025;-66
2023/09/03 05:42:05;;;;;;;1.27;1.10;;;23.40;54.50;;;;;;5014706;28;20029;-64
2023/09/03 05:44:31;;;;;;;1.90;1.13;;;23.40;54.50;;;;;;5029015;28;20472;-64
2023/09/03 05:46:57;;;;;;;2.55;1.17;;;23.40;54.50;;;;;;5013586;28;20044;-67
2023/09/03 05:49:23;;;;;;;1.17;1.08;;;23.40;54.50;;;;;;5020379;28;20029;-66
2023/09/03 05:51:49;;;;;;;1.20;1.00;;;23.40;54.50;;;;;;5014064;28;20025;-65
2023/09/03 05:54:15;;;;;;;1.27;1.02;;;23.40;54.50;;;;;;5012790;28;20029;-65
2023/09/03 05:56:41;;;;;;;1.95;1.17;;;23.40;54.60;;;;;;5038127;28;20112;-66
2023/09/03 05:59:08;;;;;;;4.43;1.10;;;23.40;54.70;;;;;;5038559;28;20036;-68
2023/09/03 06:01:35;;;;;;;2.00;1.00;;;23.40;54.60;;;;;;5019546;28;20084;-65
2023/09/03 06:04:09;;;;;;;1.92;1.23;;;23.40;54.70;;;;;;5015560;28;20025;-68
2023/09/03 06:06:37;;;;;;;1.30;1.02;;;23.40;54.70;;;;;;5009830;28;20089;-62
2023/09/03 06:09:05;;;;;;;2.15;1.13;;;23.40;54.70;;;;;;5007033;28;21835;-64
2023/09/03 06:11:32;;;;;;;1.30;1.20;;;23.40;54.70;;;;;;5033153;28;20033;-67
2023/09/03 06:13:58;;;;;;;1.98;1.20;;;23.40;54.70;;;;;;5039166;28;20029;-65
2023/09/03 06:16:24;;;;;;;1.63;1.02;;;23.40;54.70;;;;;;5047826;28;20044;-65
2023/09/03 06:18:50;;;;;;;1.45;1.00;;;23.40;54.70;;;;;;5025278;28;20029;-68
2023/09/03 06:21:16;;;;;;;1.25;1.00;;;23.50;54.80;;;;;;5020241;28;20086;-63
2023/09/03 06:23:42;;;;;;;1.05;0.90;;;23.50;54.80;;;;;;5032167;28;20037;-66
2023/09/03 06:26:08;;;;;;;1.45;0.90;;;23.40;54.90;;;;;;5031324;28;20034;-67
2023/09/03 06:28:34;;;;;;;1.85;1.25;;;23.40;54.80;;;;;;5036982;28;20081;-63
2023/09/03 06:31:01;;;;;;;1.00;0.90;;;23.50;54.90;;;;;;5045477;28;20387;-63
2023/09/03 06:33:27;;;;;;;1.92;1.10;;;23.50;55.00;;;;;;5034360;28;20108;-64
2023/09/03 06:35:53;;;;;;;1.20;1.00;;;23.50;55.00;;;;;;5043656;28;20064;-64
2023/09/03 06:38:18;;;;;;;4.20;1.20;;;23.50;55.00;;;;;;5035287;28;20515;-63
2023/09/03 06:40:44;;;;;;;1.50;1.10;;;23.50;55.00;;;;;;5017607;28;20131;-65
2023/09/03 06:43:10;;;;;;;3.38;1.20;;;23.50;55.00;;;;;;5033494;28;20046;-63
2023/09/03 06:45:36;;;;;;;2.55;1.23;;;23.50;55.00;;;;;;5031282;28;20036;-63
2023/09/03 06:48:02;;;;;;;1.40;1.00;;;23.50;55.00;;;;;;4992703;28;21087;-63
2023/09/03 06:50:28;;;;;;;1.83;0.90;;;23.50;55.10;;;;;;4989133;28;20137;-63
2023/09/03 06:52:54;;;;;;;2.58;1.15;;;23.50;55.00;;;;;;4990883;28;20106;-63
2023/09/03 06:55:20;;;;;;;1.40;0.90;;;23.50;55.00;;;;;;4998634;28;20409;-66
2023/09/03 06:57:45;;;;;;;1.10;1.00;;;23.50;55.00;;;;;;4994815;28;20034;-65
2023/09/03 07:00:12;;;;;;;0.95;0.82;;;23.50;55.10;;;;;;4990357;28;20097;-65
2023/09/03 07:02:38;;;;;;;1.25;1.05;;;23.50;55.00;;;;;;4976279;28;20365;-66
2023/09/03 07:05:04;;;;;;;1.15;0.90;;;23.50;55.10;;;;;;4995742;28;20037;-64
2023/09/03 07:07:30;;;;;;;1.48;0.93;;;23.50;55.10;;;;;;4993274;28;20026;-63
2023/09/03 07:09:57;;;;;;;2.05;1.00;;;23.60;55.10;;;;;;4991362;28;20464;-67
2023/09/03 07:12:24;;;;;;;1.23;0.93;;;23.50;55.10;;;;;;5000731;28;20061;-66
2023/09/03 07:14:51;;;;;;;1.30;1.05;;;23.50;55.10;;;;;;5001600;28;20030;-62
2023/09/03 07:17:17;;;;;;;1.13;1.02;;;23.50;55.00;;;;;;4996233;28;20204;-62
2023/09/03 07:19:43;;;;;;;1.23;1.13;;;23.60;55.10;;;;;;5007541;28;20109;-65
2023/09/03 07:22:09;;;;;;;2.20;1.00;;;23.60;55.10;;;;;;5005989;28;20391;-66
2023/09/03 07:24:35;;;;;;;1.10;1.00;;;23.60;55.10;;;;;;5003492;28;20112;-63
2023/09/03 07:27:01;;;;;;;1.58;0.90;;;23.60;55.10;;;;;;5005696;28;20088;-67
2023/09/03 07:29:27;;;;;;;1.15;1.00;;;23.60;55.00;;;;;;5002387;28;20097;-67
2023/09/03 07:31:53;;;;;;;2.88;1.23;;;23.60;55.00;;;;;;5002450;28;20044;-63
2023/09/03 07:34:19;;;;;;;1.63;1.20;;;23.60;55.00;;;;;;5003147;28;20038;-64
2023/09/03 07:36:44;;;;;;;2.10;1.20;;;23.60;55.00;;;;;;5005937;28;20057;-63
2023/09/03 07:39:10;;;;;;;1.63;1.10;;;23.60;55.00;;;;;;5004882;28;20026;-64
2023/09/03 07:41:37;;;;;;;2.03;1.10;;;23.60;55.00;;;;;;5000025;28;20026;-67
2023/09/03 07:44:03;;;;;;;2.38;1.23;;;23.70;55.10;;;;;;5003800;28;20054;-67
2023/09/03 07:46:31;;;;;;;1.50;1.00;;;23.60;55.10;;;;;;5009337;28;20353;-65
2023/09/03 07:48:57;;;;;;;1.83;1.00;;;23.60;55.10;;;;;;5022499;28;20106;-65
2023/09/03 07:51:23;;;;;;;1.35;1.20;;;23.60;55.10;;;;;;5007225;28;20041;-64
2023/09/03 07:53:49;;;;;;;2.03;1.23;;;23.60;55.10;;;;;;5023177;28;20029;-66
2023/09/03 07:56:16;;;;;;;1.23;1.13;;;23.60;55.20;;;;;;5024724;28;20113;-67
2023/09/03 07:58:42;;;;;;;1.38;1.17;;;23.60;55.20;;;;;;5035288;28;20039;-65
2023/09/03 08:01:12;;;;;;;1.17;1.00;;;23.60;55.20;;;;;;5023364;28;20096;-62
2023/09/03 08:03:39;;;;;;;1.10;1.00;;;23.60;55.20;;;;;;5024406;28;20029;-64
2023/09/03 08:06:06;;;;;;;1.75;1.10;;;23.70;55.30;;;;;;5011999;28;20073;-69
2023/09/03 08:08:32;;;;;;;2.72;1.20;;;23.70;55.30;;;;;;5011828;28;20474;-69
2023/09/03 08:10:59;;;;;;;2.03;1.05;;;23.70;55.30;;;;;;5025038;28;20124;-69
2023/09/03 08:13:25;;;;;;;1.00;0.80;;;23.70;55.40;;;;;;5021987;28;20401;-70
2023/09/03 08:15:51;;;;;;;1.27;1.17;;;23.70;55.30;;;;;;5024282;28;20032;-69
2023/09/03 08:18:17;;;;;;;0.73;0.70;;;23.70;55.30;;;;;;5013886;28;20034;-70
2023/09/03 08:20:43;;;;;;;2.40;1.10;;;23.70;55.30;;;;;;5023452;28;20119;-69
2023/09/03 08:23:12;;;;;;;1.88;1.10;;;23.70;55.30;;;;;;5019103;28;21228;-69
2023/09/03 08:25:38;;;;;;;1.38;1.08;;;23.70;55.30;;;;;;5019718;28;20331;-70
2023/09/03 08:28:04;;;;;;;1.45;1.00;;;23.70;55.30;;;;;;5021882;28;20047;-69
2023/09/03 08:30:31;;;;;;;1.58;0.95;;;23.80;55.30;;;;;;5016847;28;20076;-70
2023/09/03 08:32:57;;;;;;;2.35;1.20;;;23.70;55.20;;;;;;5018702;28;20058;-70
2023/09/03 08:35:22;;;;;;;1.63;1.10;;;23.70;55.10;;;;;;5024890;28;20364;-70
2023/09/03 08:37:49;;;;;;;1.00;0.90;;;23.80;55.10;;;;;;5023569;28;20185;-70
2023/09/03 08:40:17;;;;;;;1.77;0.88;;;23.80;55.00;;;;;;5020757;28;20025;-70
2023/09/03 08:42:47;;;;;;;1.50;1.02;;;23.80;54.90;;;;;;5021696;28;20025;-69
2023/09/03 08:45:15;;;;;;;1.45;1.00;;;23.80;54.90;;;;;;5019085;28;20034;-72
2023/09/03 08:47:44;;;;;;;2.20;1.20;;;23.80;54.80;;;;;;5024275;28;20127;-70
2023/09/03 08:50:15;;;;;;;1.90;0.98;;;23.80;54.80;;;;;;5031253;28;20187;-70
2023/09/03 08:52:43;;;;;;;2.55;1.08;;;23.90;54.80;;;;;;5030768;28;20290;-66
2023/09/03 08:55:13;;;;;;;1.35;0.90;;;23.80;54.70;;;;;;5030678;28;20040;-64
2023/09/03 08:57:40;;;;;;;1.30;1.10;;;23.90;54.70;;;;;;5031006;28;20056;-65
2023/09/03 09:00:07;;;;;;;2.50;1.15;;;23.80;54.70;;;;;;5012732;28;20059;-60
2023/09/03 09:02:34;;;;;;;1.30;0.80;;;23.90;54.80;;;;;;5012644;28;20049;-62
2023/09/03 09:05:03;;;;;;;1.10;0.90;;;23.90;54.60;;;;;;5031616;28;20441;-64
2023/09/03 09:07:30;;;;;;;2.25;1.33;;;23.80;54.20;;;;;;5033111;28;20049;-65
2023/09/03 09:10:00;;;;;;;1.73;1.40;;;23.90;54.50;;;;;;5021847;28;20358;-62
2023/09/03 09:12:33;;;;;;;2.20;1.20;;;23.90;55.20;;;;;;5019654;28;20020;-63
2023/09/03 09:15:04;;;;;;;1.73;1.20;;;23.90;54.60;;;;;;5039705;28;20385;-66
2023/09/03 09:17:43;;;;;;;1.90;1.05;;;23.90;54.80;;;;;;5036690;28;20099;-69
2023/09/03 09:20:14;;;;;;;12.70;4.70;;;23.90;54.90;;;;;;5040810;28;20040;-67
2023/09/03 09:22:41;;;;;;;18.67;8.43;;;24.00;55.10;;;;;;5044713;28;20486;-65
2023/09/03 09:25:08;;;;;;;27.48;11.63;;;24.00;55.60;;;;;;5040101;28;20053;-68
2023/09/03 09:27:38;;;;;;;34.20;13.55;;;24.00;56.40;;;;;;5043393;28;20132;-65
2023/09/03 09:30:12;;;;;;;35.95;12.88;;;24.00;57.40;;;;;;5045327;28;20045;-65
2023/09/03 09:32:40;;;;;;;29.48;13.27;;;24.10;58.10;;;;;;5044675;28;20094;-64
2023/09/03 09:35:07;;;;;;;25.05;12.02;;;24.10;58.50;;;;;;5027149;28;20029;-62
2023/09/03 09:37:40;;;;;;;22.77;10.50;;;24.10;58.90;;;;;;5027061;28;20060;-66
2023/09/03 09:40:12;;;;;;;18.63;8.90;;;24.10;58.90;;;;;;5031753;28;20071;-65
2023/09/03 09:43:06;;;;;;;14.30;7.57;;;24.10;58.70;;;;;;5044859;28;20029;-63
2023/09/03 09:45:53;;;;;;;12.23;6.70;;;24.20;58.30;;;;;;5039462;28;20041;-65
2023/09/03 09:48:19;;;;;;;14.75;7.28;;;24.20;58.00;;;;;;5037653;28;20132;-67
2023/09/03 09:50:47;;;;;;;14.82;6.40;;;24.20;58.50;;;;;;5007867;28;20033;-61
2023/09/03 09:53:25;;;;;;;12.50;5.63;;;24.20;57.80;;;;;;5014026;28;20034;-62
2023/09/03 09:56:01;;;;;;;9.13;5.15;;;24.30;57.60;;;;;;5035486;28;20029;-64
2023/09/03 09:58:41;;;;;;;11.93;5.55;;;24.30;57.30;;;;;;5035525;28;20129;-67
2023/09/03 10:01:08;;;;;;;28.58;10.55;;;24.30;57.20;;;;;;5035278;28;20099;-66
2023/09/03 10:03:40;;;;;;;27.95;12.13;;;24.30;57.60;;;;;;5033939;28;20119;-64
2023/09/03 10:06:07;;;;;;;25.90;11.43;;;24.30;58.60;;;;;;5032074;28;20052;-64
2023/09/03 10:08:34;;;;;;;20.35;9.27;;;24.40;59.20;;;;;;5030181;28;20056;-64
2023/09/03 10:11:00;;;;;;;19.77;8.93;;;24.40;59.20;;;;;;5030054;28;20124;-64
2023/09/03 10:13:26;;;;;;;26.90;9.73;;;24.40;59.20;;;;;;5008803;28;20482;-66
2023/09/03 10:15:54;;;;;;;23.70;10.10;;;24.40;59.60;;;;;;5022268;28;20334;-68
2023/09/03 10:18:21;;;;;;;20.02;10.00;;;24.50;60.00;;;;;;5010703;28;20388;-67
2023/09/03 10:20:49;;;;;;;19.27;9.20;;;24.50;60.30;;;;;;5033774;28;20029;-64
2023/09/03 10:23:18;;;;;;;16.70;8.10;;;24.50;60.50;;;;;;5033383;28;20029;-62
2023/09/03 10:25:45;;;;;;;13.23;5.50;;;24.50;60.10;;;;;;5034284;28;20055;-64
2023/09/03 10:28:13;;;;;;;8.55;3.85;;;24.50;59.10;;;;;;5031151;28;20042;-63
2023/09/03 10:30:41;;;;;;;8.88;3.08;;;24.50;58.10;;;;;;5030597;28;20392;-62
2023/09/03 10:33:09;;;;;;;7.47;3.47;;;24.50;57.30;;;;;;5034942;28;20031;-65
2023/09/03 10:35:35;;;;;;;4.70;2.45;;;24.50;56.90;;;;;;5031679;28;20064;-67
2023/09/03 10:38:01;;;;;;;7.05;4.53;;;24.50;56.50;;;;;;5027609;28;20091;-67
2023/09/03 10:40:32;;;;;;;10.27;5.72;;;24.50;56.40;;;;;;5039719;28;20306;-65
2023/09/03 10:43:21;;;;;;;8.57;4.93;;;24.50;56.60;;;;;;5017888;28;20160;-65
2023/09/03 10:46:07;;;;;;;10.32;5.03;;;24.60;56.80;;;;;;5027730;28;20374;-64
2023/09/03 10:48:37;;;;;;;9.32;4.32;;;24.60;56.80;;;;;;5035703;28;20184;-66
2023/09/03 10:51:03;;;;;;;7.03;4.07;;;24.60;56.50;;;;;;5035820;28;21209;-71
2023/09/03 10:53:36;;;;;;;5.28;3.03;;;24.60;56.20;;;;;;5037939;28;20046;-68
2023/09/03 10:56:17;;;;;;;5.20;2.67;;;24.70;55.80;;;;;;5034261;28;20033;-68
2023/09/03 10:59:01;;;;;;;3.15;1.65;;;24.70;55.30;;;;;;5036557;28;20112;-67
2023/09/03 11:01:32;;;;;;;3.25;1.70;;;24.70;54.80;;;;;;5035942;28;20034;-65
2023/09/03 11:04:00;;;;;;;3.42;1.70;;;24.70;54.50;;;;;;5029025;28;20326;-67
2023/09/03 11:06:30;;;;;;;3.67;1.88;;;24.70;54.20;;;;;;5035111;28;20108;-67
2023/09/03 11:09:06;;;;;;;2.20;1.40;;;24.70;54.00;;;;;;5003137;28;20025;-67
2023/09/03 11:11:35;;;;;;;2.03;1.40;;;24.70;53.80;;;;;;5029533;28;20040;-66
2023/09/03 11:14:02;;;;;;;2.05;1.35;;;24.70;53.60;;;;;;5028772;28;20028;-66
2023/09/03 11:16:36;;;;;;;2.50;1.30;;;24.80;53.40;;;;;;5037041;28;20163;-67
2023/09/03 11:19:04;;;;;;;;;;;24.80;53.10;;;;;;5007149;28;20099;-68
2023/09/03 11:21:31;;;;;;;1.50;0.82;;;24.70;53.10;;;;;;5041285;28;19973;-67
2023/09/03 11:24:00;;;;;;;3.25;1.00;;;24.80;52.90;;;;;;5030156;28;20483;-66
2023/09/03 11:26:27;;;;;;;1.77;1.10;;;24.80;52.50;;;;;;5024151;28;20030;-67
2023/09/03 11:28:53;;;;;;;0.77;0.70;;;24.80;52.40;;;;;;5041040;28;20658;-67
2023/09/03 11:31:19;;;;;;;1.45;0.88;;;24.80;52.10;;;;;;5029048;28;20132;-65
2023/09/03 11:33:46;;;;;;;1.30;0.80;;;24.80;52.00;;;;;;5036480;28;20025;-66
2023/09/03 11:36:12;;;;;;;0.98;0.80;;;24.80;51.70;;;;;;5029046;28;20025;-67
2023/09/03 11:38:38;;;;;;;1.20;0.90;;;24.80;51.50;;;;;;5029216;28;20038;-66
2023/09/03 11:41:04;;;;;;;1.55;0.80;;;24.80;51.30;;;;;;5029770;28;20029;-64
2023/09/03 11:43:34;;;;;;;1.30;0.80;;;24.80;51.10;;;;;;5034446;28;20032;-66
2023/09/03 11:46:01;;;;;;;2.13;0.90;;;24.80;50.90;;;;;;5029563;28;20036;-64
2023/09/03 11:48:28;;;;;;;1.23;0.65;;;24.80;50.80;;;;;;5031028;28;20068;-65
2023/09/03 11:50:54;;;;;;;0.95;0.65;;;24.80;50.60;;;;;;5015168;28;20429;-66
2023/09/03 11:53:22;;;;;;;0.85;0.70;;;24.80;50.40;;;;;;5010234;28;20131;-65
2023/09/03 11:55:54;;;;;;;1.23;0.70;;;24.80;50.30;;;;;;5035157;28;20108;-65
2023/09/03 11:58:27;;;;;;;1.52;0.77;;;24.90;50.30;;;;;;5044665;28;20093;-67
2023/09/03 12:00:54;;;;;;;1.15;0.75;;;24.80;50.80;;;;;;5031162;28;20413;-67
2023/09/03 12:03:21;;;;;;;1.58;0.70;;;24.90;50.10;;;;;;5023829;28;20278;-66
2023/09/03 12:05:47;;;;;;;1.10;0.68;;;24.90;49.90;;;;;;5028467;28;20060;-67
2023/09/03 12:08:13;;;;;;;0.68;0.55;;;24.90;49.70;;;;;;5035844;28;20415;-66
2023/09/03 12:10:39;;;;;;;0.98;0.63;;;24.90;49.40;;;;;;5051103;28;20032;-66
2023/09/03 12:13:05;;;;;;;0.77;0.73;;;24.90;49.10;;;;;;5024908;28;20033;-65
2023/09/03 12:15:31;;;;;;;0.60;0.40;;;24.90;48.80;;;;;;5024845;28;20053;-65
2023/09/03 12:18:10;;;;;;;0.70;0.60;;;24.90;48.50;;;;;;5033989;28;20114;-64
2023/09/03 12:20:37;;;;;;;0.93;0.60;;;24.90;48.20;;;;;;5032693;28;20037;-67
2023/09/03 12:23:14;;;;;;;1.15;0.60;;;24.90;48.00;;;;;;5034382;28;20125;-65
2023/09/03 12:25:42;;;;;;;0.70;0.65;;;24.90;47.80;;;;;;5039363;28;20025;-67
2023/09/03 12:28:09;;;;;;;0.60;0.50;;;24.90;47.60;;;;;;5034972;28;20033;-67
2023/09/03 12:31:00;;;;;;;0.80;0.60;;;24.90;47.40;;;;;;5034532;28;20048;-66
2023/09/03 12:33:34;;;;;;;0.77;0.50;;;24.90;47.30;;;;;;5034203;28;20060;-64
2023/09/03 12:36:08;;;;;;;1.67;0.50;;;24.90;47.30;;;;;;5008236;28;20026;-66
2023/09/03 12:38:53;;;;;;;0.57;0.57;;;24.90;47.30;;;;;;5029308;28;20037;-67
2023/09/03 12:41:24;;;;;;;0.55;0.50;;;24.90;47.20;;;;;;5027824;28;20072;-66
2023/09/03 12:43:51;;;;;;;1.38;0.70;;;24.90;47.20;;;;;;5035101;28;20069;-66
2023/09/03 12:46:17;;;;;;;0.93;0.60;;;24.90;47.20;;;;;;5032400;28;20044;-66
2023/09/03 12:48:44;;;;;;;1.02;0.63;;;24.90;47.10;;;;;;5030666;28;20511;-66
2023/09/03 12:51:12;;;;;;;0.90;0.55;;;25.00;47.20;;;;;;5034529;28;20049;-68
2023/09/03 12:53:39;;;;;;;0.60;0.50;;;24.90;47.20;;;;;;5031778;28;20087;-66